TAP1933 LPPR-LPPT
Flight info
| Callsign | TAP1933 |
|---|---|
| Flight time | 0h 55m |
| Altitude | 23000 |
| Route | MANIK DCT ABRIL DCT XAMAX |
| Aircraft | A320/M-SDE3FGHIRWY/LB1 |
Departure
| Time | 2026-05-07 17:09 |
|---|---|
| Airport | Francisco de Sá Carneiro Airport (LPPR) |
Arrival
| Time | 2026-05-07 18:04 |
|---|---|
| Airport | Lisbon Humberto Delgado Airport (LPPT) |
| Time | Latitude | Longitude | Altitude | Speed | Heading |
|---|---|---|---|---|---|
| 2026-05-07 16:42 | 41.23589 | -8.67222 | 237 ft | 0 kts | 93° |
| 2026-05-07 17:00 | 41.23589 | -8.67225 | 237 ft | 2 kts | 93° |
| 2026-05-07 17:00 | 41.23593 | -8.67259 | 237 ft | 4 kts | 107° |
| 2026-05-07 17:00 | 41.23603 | -8.67292 | 237 ft | 4 kts | 123° |
| 2026-05-07 17:00 | 41.23620 | -8.67319 | 237 ft | 4 kts | 143° |
| 2026-05-07 17:01 | 41.23642 | -8.67335 | 237 ft | 2 kts | 167° |
| 2026-05-07 17:01 | 41.23644 | -8.67335 | 237 ft | 0 kts | 168° |
| 2026-05-07 17:04 | 41.23637 | -8.67333 | 237 ft | 5 kts | 168° |
| 2026-05-07 17:04 | 41.23589 | -8.67337 | 237 ft | 7 kts | 202° |
| 2026-05-07 17:04 | 41.23549 | -8.67365 | 237 ft | 6 kts | 209° |
| 2026-05-07 17:05 | 41.23501 | -8.67389 | 237 ft | 10 kts | 183° |
| 2026-05-07 17:05 | 41.23429 | -8.67373 | 237 ft | 10 kts | 168° |
| 2026-05-07 17:05 | 41.23362 | -8.67367 | 237 ft | 9 kts | 198° |
| 2026-05-07 17:05 | 41.23332 | -8.67430 | 237 ft | 9 kts | 257° |
| 2026-05-07 17:06 | 41.23317 | -8.67513 | 237 ft | 9 kts | 258° |
| 2026-05-07 17:06 | 41.23310 | -8.67571 | 237 ft | 0 kts | 261° |
| 2026-05-07 17:07 | 41.23308 | -8.67586 | 237 ft | 6 kts | 261° |
| 2026-05-07 17:07 | 41.23298 | -8.67666 | 238 ft | 10 kts | 261° |
| 2026-05-07 17:07 | 41.23316 | -8.67736 | 239 ft | 9 kts | 343° |
| 2026-05-07 17:08 | 41.23388 | -8.67755 | 237 ft | 13 kts | 348° |
| 2026-05-07 17:08 | 41.23611 | -8.67820 | 229 ft | 67 kts | 349° |
| 2026-05-07 17:08 | 41.24305 | -8.67994 | 215 ft | 132 kts | 349° |
| 2026-05-07 17:08 | 41.25354 | -8.68271 | 440 ft | 160 kts | 348° |
| 2026-05-07 17:09 | 41.26406 | -8.68464 | 1421 ft | 147 kts | 351° |
| 2026-05-07 17:09 | 41.27387 | -8.68666 | 2357 ft | 138 kts | 350° |
| 2026-05-07 17:09 | 41.28349 | -8.68915 | 2914 ft | 150 kts | 346° |
| 2026-05-07 17:09 | 41.29444 | -8.69234 | 3284 ft | 172 kts | 346° |
| 2026-05-07 17:10 | 41.30698 | -8.69598 | 3646 ft | 197 kts | 347° |
| 2026-05-07 17:10 | 41.32122 | -8.70000 | 4085 ft | 221 kts | 347° |
| 2026-05-07 17:10 | 41.33709 | -8.70437 | 4564 ft | 245 kts | 348° |
| 2026-05-07 17:10 | 41.35457 | -8.70909 | 5157 ft | 264 kts | 348° |
| 2026-05-07 17:11 | 41.37287 | -8.71396 | 6000 ft | 272 kts | 348° |
| 2026-05-07 17:11 | 41.39147 | -8.72130 | 6840 ft | 280 kts | 331° |
| 2026-05-07 17:11 | 41.40651 | -8.73767 | 7675 ft | 284 kts | 306° |
| 2026-05-07 17:11 | 41.41512 | -8.76129 | 8541 ft | 287 kts | 280° |
| 2026-05-07 17:12 | 41.41551 | -8.78770 | 9409 ft | 288 kts | 257° |
| 2026-05-07 17:12 | 41.40890 | -8.81288 | 10121 ft | 295 kts | 237° |
| 2026-05-07 17:12 | 41.39502 | -8.83394 | 10417 ft | 314 kts | 213° |
| 2026-05-07 17:12 | 41.37447 | -8.84563 | 10683 ft | 334 kts | 188° |
| 2026-05-07 17:13 | 41.35088 | -8.84356 | 11082 ft | 348 kts | 165° |
| 2026-05-07 17:13 | 41.32722 | -8.83501 | 11766 ft | 355 kts | 167° |
| 2026-05-07 17:13 | 41.30293 | -8.82811 | 12508 ft | 360 kts | 169° |
| 2026-05-07 17:13 | 41.27805 | -8.82209 | 13234 ft | 365 kts | 171° |
| 2026-05-07 17:14 | 41.25286 | -8.81633 | 13926 ft | 371 kts | 171° |
| 2026-05-07 17:14 | 41.22726 | -8.81035 | 14571 ft | 375 kts | 171° |
| 2026-05-07 17:14 | 41.20147 | -8.80404 | 15242 ft | 378 kts | 170° |
| 2026-05-07 17:14 | 41.17549 | -8.79738 | 15908 ft | 382 kts | 170° |
| 2026-05-07 17:15 | 41.14935 | -8.79048 | 16558 ft | 385 kts | 169° |
| 2026-05-07 17:15 | 41.12295 | -8.78342 | 17202 ft | 388 kts | 169° |
| 2026-05-07 17:15 | 41.09639 | -8.77631 | 17833 ft | 391 kts | 169° |
| 2026-05-07 17:15 | 41.06960 | -8.76915 | 18420 ft | 394 kts | 169° |
| 2026-05-07 17:16 | 41.04295 | -8.75986 | 18952 ft | 398 kts | 164° |
| 2026-05-07 17:16 | 41.01639 | -8.74890 | 19484 ft | 401 kts | 164° |
| 2026-05-07 17:16 | 40.98931 | -8.73774 | 20018 ft | 404 kts | 164° |
| 2026-05-07 17:16 | 40.96267 | -8.72678 | 20533 ft | 407 kts | 165° |
| 2026-05-07 17:17 | 40.93521 | -8.71550 | 21050 ft | 410 kts | 165° |
| 2026-05-07 17:17 | 40.90788 | -8.70431 | 21547 ft | 413 kts | 165° |
| 2026-05-07 17:17 | 40.88029 | -8.69303 | 22032 ft | 416 kts | 165° |
| 2026-05-07 17:17 | 40.85256 | -8.68168 | 22515 ft | 419 kts | 165° |
| 2026-05-07 17:18 | 40.82456 | -8.67021 | 22854 ft | 422 kts | 165° |
| 2026-05-07 17:18 | 40.79647 | -8.65874 | 22913 ft | 420 kts | 165° |
| 2026-05-07 17:18 | 40.76927 | -8.64764 | 22914 ft | 399 kts | 165° |
| 2026-05-07 17:18 | 40.74334 | -8.63704 | 22916 ft | 381 kts | 165° |
| 2026-05-07 17:19 | 40.71835 | -8.62684 | 22916 ft | 374 kts | 165° |
| 2026-05-07 17:19 | 40.69328 | -8.61788 | 22912 ft | 371 kts | 171° |
| 2026-05-07 17:19 | 40.66790 | -8.61305 | 22916 ft | 369 kts | 177° |
| 2026-05-07 17:19 | 40.64239 | -8.61000 | 22913 ft | 369 kts | 177° |
| 2026-05-07 17:20 | 40.61686 | -8.60694 | 22911 ft | 368 kts | 177° |
| 2026-05-07 17:20 | 40.59126 | -8.60387 | 22910 ft | 368 kts | 177° |
| 2026-05-07 17:20 | 40.56571 | -8.60083 | 22912 ft | 368 kts | 177° |
| 2026-05-07 17:20 | 40.54018 | -8.59775 | 22908 ft | 368 kts | 177° |
| 2026-05-07 17:21 | 40.51467 | -8.59466 | 22910 ft | 369 kts | 177° |
| 2026-05-07 17:21 | 40.48912 | -8.59157 | 22911 ft | 369 kts | 177° |
| 2026-05-07 17:21 | 40.46360 | -8.58851 | 22915 ft | 369 kts | 177° |
| 2026-05-07 17:21 | 40.43808 | -8.58545 | 22915 ft | 369 kts | 177° |
| 2026-05-07 17:22 | 40.41252 | -8.58237 | 22917 ft | 368 kts | 177° |
| 2026-05-07 17:22 | 40.38749 | -8.57931 | 22908 ft | 352 kts | 177° |
| 2026-05-07 17:22 | 40.36352 | -8.57635 | 22911 ft | 344 kts | 177° |
| 2026-05-07 17:22 | 40.33966 | -8.57344 | 22911 ft | 342 kts | 177° |
| 2026-05-07 17:23 | 40.31601 | -8.57057 | 22910 ft | 341 kts | 177° |
| 2026-05-07 17:23 | 40.29236 | -8.56772 | 22910 ft | 341 kts | 177° |
| 2026-05-07 17:23 | 40.26875 | -8.56487 | 22910 ft | 341 kts | 177° |
| 2026-05-07 17:23 | 40.24507 | -8.56199 | 22914 ft | 341 kts | 177° |
| 2026-05-07 17:24 | 40.22143 | -8.55911 | 22911 ft | 341 kts | 177° |
| 2026-05-07 17:24 | 40.19777 | -8.55624 | 22908 ft | 341 kts | 177° |
| 2026-05-07 17:24 | 40.18175 | -8.55432 | 22913 ft | 341 kts | 177° |
| 2026-05-07 17:24 | 40.15816 | -8.55149 | 22912 ft | 341 kts | 177° |
| 2026-05-07 17:25 | 40.13451 | -8.54864 | 22908 ft | 341 kts | 177° |
| 2026-05-07 17:25 | 40.11088 | -8.54580 | 22912 ft | 341 kts | 177° |
| 2026-05-07 17:25 | 40.08723 | -8.54294 | 22912 ft | 341 kts | 177° |
| 2026-05-07 17:25 | 40.06369 | -8.54012 | 22908 ft | 341 kts | 177° |
| 2026-05-07 17:26 | 40.04002 | -8.53727 | 22910 ft | 341 kts | 177° |
| 2026-05-07 17:26 | 40.01635 | -8.53456 | 22905 ft | 341 kts | 178° |
| 2026-05-07 17:26 | 39.99275 | -8.53238 | 22907 ft | 340 kts | 179° |
| 2026-05-07 17:26 | 39.96911 | -8.53050 | 22915 ft | 340 kts | 179° |
| 2026-05-07 17:27 | 39.94539 | -8.52872 | 22925 ft | 340 kts | 179° |
| 2026-05-07 17:27 | 39.92180 | -8.52694 | 22916 ft | 340 kts | 179° |
| 2026-05-07 17:27 | 39.89816 | -8.52507 | 22915 ft | 340 kts | 179° |
| 2026-05-07 17:27 | 39.87457 | -8.52314 | 22921 ft | 340 kts | 179° |
| 2026-05-07 17:28 | 39.85090 | -8.52119 | 22916 ft | 340 kts | 179° |
| 2026-05-07 17:28 | 39.82728 | -8.51926 | 22918 ft | 340 kts | 179° |
| 2026-05-07 17:28 | 39.80365 | -8.51778 | 22928 ft | 339 kts | 183° |
| 2026-05-07 17:28 | 39.78018 | -8.51968 | 22911 ft | 337 kts | 190° |
| 2026-05-07 17:29 | 39.75728 | -8.52555 | 22916 ft | 335 kts | 197° |
| 2026-05-07 17:29 | 39.73527 | -8.53517 | 22918 ft | 333 kts | 204° |
| 2026-05-07 17:29 | 39.71393 | -8.54773 | 22915 ft | 333 kts | 203° |
| 2026-05-07 17:29 | 39.69119 | -8.55328 | 22912 ft | 337 kts | 181° |
| 2026-05-07 17:30 | 39.66793 | -8.54833 | 22909 ft | 341 kts | 170° |
| 2026-05-07 17:30 | 39.64481 | -8.54145 | 22904 ft | 341 kts | 170° |
| 2026-05-07 17:30 | 39.62164 | -8.53455 | 22897 ft | 341 kts | 171° |
| 2026-05-07 17:30 | 39.59829 | -8.53135 | 22896 ft | 336 kts | 185° |
| 2026-05-07 17:31 | 39.57536 | -8.53588 | 22903 ft | 332 kts | 199° |
| 2026-05-07 17:31 | 39.55436 | -8.54782 | 22884 ft | 330 kts | 212° |
| 2026-05-07 17:31 | 39.53473 | -8.56328 | 22894 ft | 330 kts | 212° |
| 2026-05-07 17:31 | 39.51509 | -8.57871 | 22899 ft | 331 kts | 212° |
| 2026-05-07 17:32 | 39.49538 | -8.59414 | 22900 ft | 331 kts | 212° |
| 2026-05-07 17:32 | 39.47571 | -8.60954 | 22887 ft | 331 kts | 212° |
| 2026-05-07 17:32 | 39.45600 | -8.62500 | 22893 ft | 331 kts | 212° |
| 2026-05-07 17:32 | 39.43632 | -8.64043 | 22909 ft | 331 kts | 212° |
| 2026-05-07 17:33 | 39.41664 | -8.65586 | 22899 ft | 331 kts | 212° |
| 2026-05-07 17:33 | 39.39693 | -8.67126 | 22902 ft | 331 kts | 212° |
| 2026-05-07 17:33 | 39.37728 | -8.68662 | 22899 ft | 329 kts | 212° |
| 2026-05-07 17:33 | 39.35808 | -8.70163 | 22906 ft | 314 kts | 212° |
| 2026-05-07 17:34 | 39.33987 | -8.71585 | 22911 ft | 299 kts | 212° |
| 2026-05-07 17:34 | 39.32238 | -8.72970 | 22910 ft | 292 kts | 215° |
| 2026-05-07 17:34 | 39.30612 | -8.74532 | 22912 ft | 290 kts | 221° |
| 2026-05-07 17:34 | 39.29110 | -8.76253 | 22913 ft | 289 kts | 222° |
| 2026-05-07 17:35 | 39.27612 | -8.77978 | 22916 ft | 288 kts | 222° |
| 2026-05-07 17:35 | 39.26112 | -8.79695 | 22915 ft | 288 kts | 222° |
| 2026-05-07 17:35 | 39.24608 | -8.81412 | 22917 ft | 288 kts | 222° |
| 2026-05-07 17:35 | 39.23111 | -8.83120 | 22917 ft | 288 kts | 222° |
| 2026-05-07 17:36 | 39.21610 | -8.84835 | 22919 ft | 288 kts | 222° |
| 2026-05-07 17:36 | 39.20112 | -8.86546 | 22826 ft | 289 kts | 222° |
| 2026-05-07 17:36 | 39.18602 | -8.88270 | 22455 ft | 288 kts | 222° |
| 2026-05-07 17:36 | 39.17106 | -8.89972 | 22160 ft | 285 kts | 222° |
| 2026-05-07 17:37 | 39.15605 | -8.91677 | 21805 ft | 283 kts | 221° |
| 2026-05-07 17:37 | 39.14134 | -8.93351 | 21457 ft | 282 kts | 221° |
| 2026-05-07 17:37 | 39.12689 | -8.94999 | 21121 ft | 281 kts | 221° |
| 2026-05-07 17:37 | 39.11210 | -8.96686 | 20774 ft | 280 kts | 221° |
| 2026-05-07 17:38 | 39.09756 | -8.98343 | 20448 ft | 279 kts | 221° |
| 2026-05-07 17:38 | 39.08308 | -8.99993 | 20122 ft | 278 kts | 221° |
| 2026-05-07 17:38 | 39.06866 | -9.01633 | 19813 ft | 277 kts | 221° |
| 2026-05-07 17:38 | 39.05424 | -9.03274 | 19507 ft | 276 kts | 221° |
| 2026-05-07 17:39 | 39.03989 | -9.04905 | 19196 ft | 275 kts | 220° |
| 2026-05-07 17:39 | 39.02558 | -9.06528 | 18901 ft | 274 kts | 220° |
| 2026-05-07 17:39 | 39.01133 | -9.08141 | 18608 ft | 273 kts | 220° |
| 2026-05-07 17:39 | 38.99590 | -9.09534 | 18326 ft | 271 kts | 207° |
| 2026-05-07 17:40 | 38.97872 | -9.10510 | 17999 ft | 270 kts | 202° |
| 2026-05-07 17:40 | 38.96141 | -9.11429 | 17674 ft | 269 kts | 202° |
| 2026-05-07 17:40 | 38.94426 | -9.12346 | 17368 ft | 267 kts | 202° |
| 2026-05-07 17:40 | 38.92704 | -9.13268 | 17064 ft | 266 kts | 202° |
| 2026-05-07 17:41 | 38.90999 | -9.14181 | 16779 ft | 265 kts | 202° |
| 2026-05-07 17:41 | 38.89300 | -9.15089 | 16483 ft | 264 kts | 202° |
| 2026-05-07 17:41 | 38.87610 | -9.15992 | 16205 ft | 263 kts | 202° |
| 2026-05-07 17:41 | 38.85920 | -9.16895 | 15939 ft | 262 kts | 202° |
| 2026-05-07 17:42 | 38.84240 | -9.17790 | 15675 ft | 261 kts | 202° |
| 2026-05-07 17:42 | 38.82568 | -9.18677 | 15423 ft | 260 kts | 202° |
| 2026-05-07 17:42 | 38.80899 | -9.19565 | 15155 ft | 259 kts | 202° |
| 2026-05-07 17:42 | 38.79240 | -9.20451 | 14887 ft | 258 kts | 202° |
| 2026-05-07 17:43 | 38.77587 | -9.21332 | 14629 ft | 257 kts | 202° |
| 2026-05-07 17:43 | 38.75935 | -9.22215 | 14368 ft | 257 kts | 202° |
| 2026-05-07 17:43 | 38.74290 | -9.23095 | 14112 ft | 256 kts | 202° |
| 2026-05-07 17:43 | 38.72718 | -9.24160 | 13835 ft | 254 kts | 215° |
| 2026-05-07 17:44 | 38.71415 | -9.25716 | 13359 ft | 255 kts | 230° |
| 2026-05-07 17:44 | 38.70348 | -9.27529 | 12863 ft | 255 kts | 231° |
| 2026-05-07 17:44 | 38.69382 | -9.29428 | 12584 ft | 256 kts | 246° |
| 2026-05-07 17:44 | 38.69144 | -9.31680 | 12318 ft | 261 kts | 275° |
| 2026-05-07 17:45 | 38.69643 | -9.33912 | 11874 ft | 262 kts | 288° |
| 2026-05-07 17:45 | 38.70308 | -9.36084 | 11369 ft | 262 kts | 289° |
| 2026-05-07 17:45 | 38.70993 | -9.38241 | 10879 ft | 261 kts | 289° |
| 2026-05-07 17:45 | 38.71679 | -9.40387 | 10410 ft | 260 kts | 289° |
| 2026-05-07 17:46 | 38.72362 | -9.42521 | 10143 ft | 258 kts | 289° |
| 2026-05-07 17:46 | 38.72898 | -9.44686 | 9878 ft | 252 kts | 273° |
| 2026-05-07 17:46 | 38.72763 | -9.46877 | 9574 ft | 245 kts | 249° |
| 2026-05-07 17:46 | 38.71962 | -9.48748 | 9244 ft | 239 kts | 226° |
| 2026-05-07 17:47 | 38.70658 | -9.50029 | 8897 ft | 236 kts | 204° |
| 2026-05-07 17:47 | 38.69128 | -9.50782 | 8536 ft | 236 kts | 200° |
| 2026-05-07 17:47 | 38.67590 | -9.51509 | 8193 ft | 235 kts | 200° |
| 2026-05-07 17:47 | 38.66061 | -9.52231 | 7947 ft | 233 kts | 200° |
| 2026-05-07 17:48 | 38.64536 | -9.52952 | 7921 ft | 235 kts | 200° |
| 2026-05-07 17:48 | 38.63004 | -9.53679 | 7926 ft | 236 kts | 201° |
| 2026-05-07 17:48 | 38.61467 | -9.54410 | 7927 ft | 236 kts | 201° |
| 2026-05-07 17:48 | 38.59904 | -9.55051 | 7926 ft | 236 kts | 191° |
| 2026-05-07 17:49 | 38.58265 | -9.55111 | 7928 ft | 238 kts | 173° |
| 2026-05-07 17:49 | 38.56636 | -9.54706 | 7928 ft | 239 kts | 170° |
| 2026-05-07 17:49 | 38.55009 | -9.54289 | 7933 ft | 238 kts | 171° |
| 2026-05-07 17:49 | 38.53360 | -9.53870 | 7934 ft | 238 kts | 171° |
| 2026-05-07 17:50 | 38.51755 | -9.53464 | 7935 ft | 238 kts | 171° |
| 2026-05-07 17:50 | 38.50122 | -9.52980 | 7936 ft | 239 kts | 162° |
| 2026-05-07 17:50 | 38.48643 | -9.51996 | 7933 ft | 242 kts | 148° |
| 2026-05-07 17:50 | 38.47246 | -9.50798 | 7938 ft | 242 kts | 148° |
| 2026-05-07 17:51 | 38.45849 | -9.49609 | 7943 ft | 242 kts | 149° |
| 2026-05-07 17:51 | 38.44448 | -9.48419 | 7937 ft | 241 kts | 149° |
| 2026-05-07 17:51 | 38.43054 | -9.47235 | 7940 ft | 241 kts | 149° |
| 2026-05-07 17:51 | 38.41721 | -9.45924 | 7940 ft | 244 kts | 136° |
| 2026-05-07 17:52 | 38.40693 | -9.44196 | 7940 ft | 246 kts | 126° |
| 2026-05-07 17:52 | 38.39747 | -9.42379 | 7942 ft | 246 kts | 127° |
| 2026-05-07 17:52 | 38.38795 | -9.40571 | 7940 ft | 246 kts | 127° |
| 2026-05-07 17:52 | 38.37841 | -9.38764 | 7944 ft | 245 kts | 127° |
| 2026-05-07 17:53 | 38.36889 | -9.36964 | 7942 ft | 245 kts | 126° |
| 2026-05-07 17:53 | 38.36150 | -9.34994 | 7947 ft | 249 kts | 109° |
| 2026-05-07 17:53 | 38.35782 | -9.32826 | 7937 ft | 250 kts | 104° |
| 2026-05-07 17:53 | 38.35442 | -9.30650 | 7942 ft | 250 kts | 104° |
| 2026-05-07 17:54 | 38.35098 | -9.28477 | 7945 ft | 250 kts | 104° |
| 2026-05-07 17:54 | 38.34754 | -9.26312 | 7945 ft | 250 kts | 104° |
| 2026-05-07 17:54 | 38.34477 | -9.24124 | 7946 ft | 252 kts | 92° |
| 2026-05-07 17:54 | 38.34913 | -9.21959 | 7943 ft | 258 kts | 61° |
| 2026-05-07 17:55 | 38.36149 | -9.20320 | 7924 ft | 260 kts | 31° |
| 2026-05-07 17:55 | 38.37843 | -9.19619 | 7602 ft | 257 kts | 1° |
| 2026-05-07 17:55 | 38.39594 | -9.19959 | 7237 ft | 255 kts | 341° |
| 2026-05-07 17:55 | 38.41274 | -9.20629 | 6883 ft | 248 kts | 339° |
| 2026-05-07 17:56 | 38.42363 | -9.21085 | 6729 ft | 240 kts | 339° |
| 2026-05-07 17:56 | 38.44403 | -9.21932 | 6507 ft | 222 kts | 339° |
| 2026-05-07 17:56 | 38.45817 | -9.22512 | 6285 ft | 208 kts | 339° |
| 2026-05-07 17:56 | 38.46740 | -9.22890 | 6003 ft | 205 kts | 339° |
| 2026-05-07 17:57 | 38.48081 | -9.23430 | 5732 ft | 195 kts | 339° |
| 2026-05-07 17:57 | 38.49328 | -9.23918 | 5572 ft | 182 kts | 339° |
| 2026-05-07 17:57 | 38.50527 | -9.24388 | 5293 ft | 179 kts | 339° |
| 2026-05-07 17:57 | 38.51702 | -9.24848 | 5014 ft | 176 kts | 339° |
| 2026-05-07 17:58 | 38.52864 | -9.25302 | 4814 ft | 173 kts | 339° |
| 2026-05-07 17:58 | 38.54004 | -9.25744 | 4591 ft | 171 kts | 342° |
| 2026-05-07 17:58 | 38.55196 | -9.25767 | 4373 ft | 174 kts | 10° |
| 2026-05-07 17:58 | 38.56329 | -9.25219 | 4155 ft | 174 kts | 18° |
| 2026-05-07 17:59 | 38.57444 | -9.24623 | 4034 ft | 173 kts | 18° |
| 2026-05-07 17:59 | 38.58554 | -9.24032 | 4016 ft | 173 kts | 18° |
| 2026-05-07 17:59 | 38.59670 | -9.23439 | 3904 ft | 174 kts | 18° |
| 2026-05-07 17:59 | 38.60789 | -9.22842 | 3713 ft | 173 kts | 18° |
| 2026-05-07 18:00 | 38.61896 | -9.22254 | 3503 ft | 172 kts | 18° |
| 2026-05-07 18:00 | 38.63004 | -9.21664 | 3259 ft | 172 kts | 17° |
| 2026-05-07 18:00 | 38.64109 | -9.21076 | 3032 ft | 171 kts | 17° |
| 2026-05-07 18:00 | 38.65187 | -9.20501 | 2803 ft | 165 kts | 16° |
| 2026-05-07 18:01 | 38.66231 | -9.19944 | 2591 ft | 154 kts | 17° |
| 2026-05-07 18:01 | 38.67176 | -9.19439 | 2395 ft | 143 kts | 15° |
| 2026-05-07 18:01 | 38.68084 | -9.18956 | 2198 ft | 139 kts | 15° |
| 2026-05-07 18:01 | 38.68969 | -9.18485 | 2004 ft | 138 kts | 16° |
| 2026-05-07 18:02 | 38.70733 | -9.17546 | 1640 ft | 136 kts | 16° |
| 2026-05-07 18:02 | 38.71611 | -9.17077 | 1453 ft | 137 kts | 16° |
| 2026-05-07 18:02 | 38.72487 | -9.16609 | 1267 ft | 136 kts | 15° |
| 2026-05-07 18:03 | 38.73365 | -9.16141 | 1069 ft | 137 kts | 16° |
| 2026-05-07 18:03 | 38.74240 | -9.15674 | 888 ft | 134 kts | 16° |
| 2026-05-07 18:03 | 38.75104 | -9.15217 | 710 ft | 135 kts | 17° |
| 2026-05-07 18:03 | 38.75972 | -9.14746 | 531 ft | 136 kts | 20° |
| 2026-05-07 18:04 | 38.76841 | -9.14273 | 366 ft | 133 kts | 15° |
| 2026-05-07 18:04 | 38.77605 | -9.13887 | 365 ft | 98 kts | 22° |
| 2026-05-07 18:04 | 38.78034 | -9.13660 | 367 ft | 48 kts | 22° |
| 2026-05-07 18:04 | 38.78221 | -9.13535 | 368 ft | 27 kts | 33° |
| 2026-05-07 18:05 | 38.78348 | -9.13380 | 363 ft | 14 kts | 51° |
| 2026-05-07 18:05 | 38.78359 | -9.13275 | 362 ft | 14 kts | 144° |
| 2026-05-07 18:05 | 38.78271 | -9.13290 | 365 ft | 12 kts | 201° |
| 2026-05-07 18:05 | 38.78196 | -9.13330 | 360 ft | 11 kts | 203° |
| 2026-05-07 18:06 | 38.78127 | -9.13369 | 359 ft | 10 kts | 205° |
| 2026-05-07 18:06 | 38.78067 | -9.13403 | 361 ft | 9 kts | 204° |
| 2026-05-07 18:06 | 38.78036 | -9.13421 | 360 ft | 0 kts | 202° |
| 2026-05-07 18:06 | 38.78033 | -9.13422 | 359 ft | 2 kts | 202° |
| 2026-05-07 18:07 | 38.77997 | -9.13442 | 362 ft | 6 kts | 203° |
| 2026-05-07 18:07 | 38.77955 | -9.13463 | 357 ft | 6 kts | 201° |
| 2026-05-07 18:07 | 38.77914 | -9.13484 | 361 ft | 6 kts | 201° |
| 2026-05-07 18:07 | 38.77863 | -9.13510 | 358 ft | 13 kts | 198° |
| 2026-05-07 18:08 | 38.77759 | -9.13496 | 356 ft | 16 kts | 167° |
| 2026-05-07 18:08 | 38.77639 | -9.13469 | 347 ft | 18 kts | 173° |
| 2026-05-07 18:08 | 38.77524 | -9.13433 | 346 ft | 14 kts | 169° |
| 2026-05-07 18:08 | 38.77453 | -9.13414 | 345 ft | 9 kts | 168° |
| 2026-05-07 18:09 | 38.77415 | -9.13405 | 342 ft | 0 kts | 168° |
| 2026-05-07 18:10 | 38.77413 | -9.13404 | 342 ft | 2 kts | 166° |
| 2026-05-07 18:10 | 38.77357 | -9.13387 | 342 ft | 11 kts | 167° |
| 2026-05-07 18:10 | 38.77281 | -9.13367 | 342 ft | 11 kts | 168° |
| 2026-05-07 18:10 | 38.77209 | -9.13348 | 341 ft | 10 kts | 167° |
| 2026-05-07 18:11 | 38.77141 | -9.13329 | 341 ft | 10 kts | 167° |
| 2026-05-07 18:11 | 38.77099 | -9.13317 | 341 ft | 9 kts | 168° |
| 2026-05-07 18:11 | 38.77025 | -9.13285 | 338 ft | 8 kts | 131° |
| 2026-05-07 18:11 | 38.77025 | -9.13213 | 338 ft | 9 kts | 78° |
| 2026-05-07 18:12 | 38.76989 | -9.13166 | 336 ft | 9 kts | 173° |
| 2026-05-07 18:12 | 38.76934 | -9.13155 | 336 ft | 7 kts | 167° |
| 2026-05-07 18:12 | 38.76888 | -9.13140 | 337 ft | 6 kts | 158° |
| 2026-05-07 18:12 | 38.76885 | -9.13086 | 336 ft | 6 kts | 76° |
| 2026-05-07 18:13 | 38.76890 | -9.13058 | 336 ft | 1 kts | 77° |
| 2026-05-07 18:13 | 38.76891 | -9.13052 | 334 ft | 0 kts | 77° |